sensor_id;sensor_type;location;lat;lon;timestamp;P1;durP1;ratioP1;P2;durP2;ratioP2
46222;SDS011;31943;51.410;7.564;2023-07-08T00:01:16;2.78;;;2.22;;
46222;SDS011;31943;51.410;7.564;2023-07-08T00:03:48;5.60;;;2.45;;
46222;SDS011;31943;51.410;7.564;2023-07-08T00:06:16;3.83;;;2.28;;
46222;SDS011;31943;51.410;7.564;2023-07-08T00:08:43;5.15;;;2.55;;
46222;SDS011;31943;51.410;7.564;2023-07-08T00:11:09;2.92;;;2.13;;
46222;SDS011;31943;51.410;7.564;2023-07-08T00:13:37;2.92;;;2.20;;
46222;SDS011;31943;51.410;7.564;2023-07-08T00:16:03;4.13;;;2.33;;
46222;SDS011;31943;51.410;7.564;2023-07-08T00:18:29;2.60;;;2.10;;
46222;SDS011;31943;51.410;7.564;2023-07-08T00:20:55;3.70;;;2.00;;
46222;SDS011;31943;51.410;7.564;2023-07-08T00:23:21;3.47;;;2.10;;
46222;SDS011;31943;51.410;7.564;2023-07-08T00:25:46;4.10;;;2.13;;
46222;SDS011;31943;51.410;7.564;2023-07-08T00:28:14;4.00;;;2.08;;
46222;SDS011;31943;51.410;7.564;2023-07-08T00:30:44;2.97;;;2.13;;
46222;SDS011;31943;51.410;7.564;2023-07-08T00:33:10;3.83;;;2.00;;
46222;SDS011;31943;51.410;7.564;2023-07-08T00:35:37;7.05;;;2.13;;
46222;SDS011;31943;51.410;7.564;2023-07-08T00:38:09;4.25;;;2.25;;
46222;SDS011;31943;51.410;7.564;2023-07-08T00:40:46;2.72;;;2.20;;
46222;SDS011;31943;51.410;7.564;2023-07-08T00:43:16;2.70;;;2.00;;
46222;SDS011;31943;51.410;7.564;2023-07-08T00:45:43;4.13;;;2.40;;
46222;SDS011;31943;51.410;7.564;2023-07-08T00:48:18;7.80;;;2.33;;
46222;SDS011;31943;51.410;7.564;2023-07-08T00:50:47;3.17;;;2.10;;
46222;SDS011;31943;51.410;7.564;2023-07-08T00:56:00;4.30;;;2.13;;
46222;SDS011;31943;51.410;7.564;2023-07-08T00:58:34;2.30;;;1.95;;
46222;SDS011;31943;51.410;7.564;2023-07-08T01:01:05;4.60;;;2.00;;
46222;SDS011;31943;51.410;7.564;2023-07-08T01:03:33;3.33;;;2.42;;
46222;SDS011;31943;51.410;7.564;2023-07-08T01:06:07;3.28;;;2.28;;
46222;SDS011;31943;51.410;7.564;2023-07-08T01:08:34;2.83;;;2.50;;
46222;SDS011;31943;51.410;7.564;2023-07-08T01:11:00;2.55;;;2.03;;
46222;SDS011;31943;51.410;7.564;2023-07-08T01:13:30;3.97;;;2.40;;
46222;SDS011;31943;51.410;7.564;2023-07-08T01:16:01;3.42;;;1.90;;
46222;SDS011;31943;51.410;7.564;2023-07-08T01:18:30;3.25;;;1.90;;
46222;SDS011;31943;51.410;7.564;2023-07-08T01:21:00;3.22;;;2.05;;
46222;SDS011;31943;51.410;7.564;2023-07-08T01:23:29;3.53;;;2.30;;
46222;SDS011;31943;51.410;7.564;2023-07-08T01:25:55;3.13;;;1.90;;
46222;SDS011;31943;51.410;7.564;2023-07-08T01:28:21;5.28;;;2.33;;
46222;SDS011;31943;51.410;7.564;2023-07-08T01:30:48;2.88;;;2.25;;
46222;SDS011;31943;51.410;7.564;2023-07-08T01:33:15;5.25;;;2.35;;
46222;SDS011;31943;51.410;7.564;2023-07-08T01:35:44;2.03;;;1.67;;
46222;SDS011;31943;51.410;7.564;2023-07-08T01:38:11;3.58;;;2.15;;
46222;SDS011;31943;51.410;7.564;2023-07-08T01:40:49;4.75;;;2.30;;
46222;SDS011;31943;51.410;7.564;2023-07-08T01:43:17;3.03;;;2.33;;
46222;SDS011;31943;51.410;7.564;2023-07-08T01:45:42;3.90;;;2.38;;
46222;SDS011;31943;51.410;7.564;2023-07-08T01:48:09;3.30;;;2.05;;
46222;SDS011;31943;51.410;7.564;2023-07-08T01:50:38;2.95;;;1.95;;
46222;SDS011;31943;51.410;7.564;2023-07-08T01:53:15;4.75;;;2.38;;
46222;SDS011;31943;51.410;7.564;2023-07-08T01:58:09;2.67;;;2.00;;
46222;SDS011;31943;51.410;7.564;2023-07-08T02:00:35;4.60;;;2.35;;
46222;SDS011;31943;51.410;7.564;2023-07-08T02:03:01;5.18;;;2.42;;
46222;SDS011;31943;51.410;7.564;2023-07-08T02:05:26;4.18;;;2.42;;
46222;SDS011;31943;51.410;7.564;2023-07-08T02:07:52;4.57;;;2.38;;
46222;SDS011;31943;51.410;7.564;2023-07-08T02:10:18;3.05;;;2.22;;
46222;SDS011;31943;51.410;7.564;2023-07-08T02:12:43;3.38;;;2.22;;
46222;SDS011;31943;51.410;7.564;2023-07-08T02:15:12;5.07;;;2.10;;
46222;SDS011;31943;51.410;7.564;2023-07-08T02:17:38;5.00;;;2.03;;
46222;SDS011;31943;51.410;7.564;2023-07-08T02:20:04;2.15;;;1.90;;
46222;SDS011;31943;51.410;7.564;2023-07-08T02:22:31;4.70;;;2.13;;
46222;SDS011;31943;51.410;7.564;2023-07-08T02:24:56;2.60;;;2.40;;
46222;SDS011;31943;51.410;7.564;2023-07-08T02:27:23;2.88;;;2.15;;
46222;SDS011;31943;51.410;7.564;2023-07-08T02:29:49;7.43;;;2.20;;
46222;SDS011;31943;51.410;7.564;2023-07-08T02:32:16;3.70;;;2.50;;
46222;SDS011;31943;51.410;7.564;2023-07-08T02:34:42;3.72;;;2.42;;
46222;SDS011;31943;51.410;7.564;2023-07-08T02:37:08;3.92;;;2.20;;
46222;SDS011;31943;51.410;7.564;2023-07-08T02:39:34;6.78;;;2.45;;
46222;SDS011;31943;51.410;7.564;2023-07-08T02:42:00;3.97;;;2.13;;
46222;SDS011;31943;51.410;7.564;2023-07-08T02:44:25;4.15;;;2.78;;
46222;SDS011;31943;51.410;7.564;2023-07-08T02:46:51;4.80;;;2.60;;
46222;SDS011;31943;51.410;7.564;2023-07-08T02:49:20;6.43;;;2.67;;
46222;SDS011;31943;51.410;7.564;2023-07-08T02:51:46;6.63;;;2.72;;
46222;SDS011;31943;51.410;7.564;2023-07-08T02:54:12;3.30;;;2.10;;
46222;SDS011;31943;51.410;7.564;2023-07-08T02:56:38;3.55;;;2.50;;
46222;SDS011;31943;51.410;7.564;2023-07-08T02:59:07;2.80;;;2.53;;
46222;SDS011;31943;51.410;7.564;2023-07-08T03:01:34;3.45;;;2.20;;
46222;SDS011;31943;51.410;7.564;2023-07-08T03:04:00;4.55;;;2.40;;
46222;SDS011;31943;51.410;7.564;2023-07-08T03:06:27;4.50;;;2.33;;
46222;SDS011;31943;51.410;7.564;2023-07-08T03:08:53;5.10;;;2.65;;
46222;SDS011;31943;51.410;7.564;2023-07-08T03:11:19;6.05;;;3.05;;
46222;SDS011;31943;51.410;7.564;2023-07-08T03:13:44;3.15;;;2.30;;
46222;SDS011;31943;51.410;7.564;2023-07-08T03:16:10;3.47;;;2.83;;
46222;SDS011;31943;51.410;7.564;2023-07-08T03:18:37;6.43;;;2.25;;
46222;SDS011;31943;51.410;7.564;2023-07-08T03:21:04;2.95;;;2.42;;
46222;SDS011;31943;51.410;7.564;2023-07-08T03:23:31;7.28;;;2.80;;
46222;SDS011;31943;51.410;7.564;2023-07-08T03:25:57;4.28;;;2.60;;
46222;SDS011;31943;51.410;7.564;2023-07-08T03:28:23;4.47;;;2.70;;
46222;SDS011;31943;51.410;7.564;2023-07-08T03:30:51;4.68;;;2.20;;
46222;SDS011;31943;51.410;7.564;2023-07-08T03:33:17;5.95;;;2.53;;
46222;SDS011;31943;51.410;7.564;2023-07-08T03:35:43;2.97;;;2.42;;
46222;SDS011;31943;51.410;7.564;2023-07-08T03:38:08;4.72;;;2.83;;
46222;SDS011;31943;51.410;7.564;2023-07-08T03:40:36;3.88;;;2.40;;
46222;SDS011;31943;51.410;7.564;2023-07-08T03:43:01;4.28;;;2.53;;
46222;SDS011;31943;51.410;7.564;2023-07-08T03:45:28;4.18;;;2.55;;
46222;SDS011;31943;51.410;7.564;2023-07-08T03:47:54;5.80;;;2.85;;
46222;SDS011;31943;51.410;7.564;2023-07-08T03:50:21;4.18;;;2.65;;
46222;SDS011;31943;51.410;7.564;2023-07-08T03:52:48;4.05;;;2.85;;
46222;SDS011;31943;51.410;7.564;2023-07-08T03:55:17;3.95;;;2.60;;
46222;SDS011;31943;51.410;7.564;2023-07-08T03:57:46;3.90;;;2.45;;
46222;SDS011;31943;51.410;7.564;2023-07-08T04:00:13;3.20;;;2.67;;
46222;SDS011;31943;51.410;7.564;2023-07-08T04:02:39;4.13;;;2.42;;
46222;SDS011;31943;51.410;7.564;2023-07-08T04:05:06;3.67;;;2.20;;
46222;SDS011;31943;51.410;7.564;2023-07-08T04:07:34;4.03;;;2.20;;
46222;SDS011;31943;51.410;7.564;2023-07-08T04:10:00;4.35;;;2.92;;
46222;SDS011;31943;51.410;7.564;2023-07-08T04:12:26;4.18;;;2.35;;
46222;SDS011;31943;51.410;7.564;2023-07-08T04:14:55;5.97;;;2.55;;
46222;SDS011;31943;51.410;7.564;2023-07-08T04:17:24;5.47;;;2.50;;
46222;SDS011;31943;51.410;7.564;2023-07-08T04:19:54;3.47;;;2.50;;
46222;SDS011;31943;51.410;7.564;2023-07-08T04:22:21;4.78;;;2.33;;
46222;SDS011;31943;51.410;7.564;2023-07-08T04:24:46;3.58;;;2.80;;
46222;SDS011;31943;51.410;7.564;2023-07-08T04:27:12;4.10;;;2.67;;
46222;SDS011;31943;51.410;7.564;2023-07-08T04:29:40;4.63;;;2.90;;
46222;SDS011;31943;51.410;7.564;2023-07-08T04:32:11;4.95;;;2.65;;
46222;SDS011;31943;51.410;7.564;2023-07-08T04:34:41;4.90;;;2.60;;
46222;SDS011;31943;51.410;7.564;2023-07-08T04:37:08;4.18;;;2.63;;
46222;SDS011;31943;51.410;7.564;2023-07-08T04:39:36;6.25;;;3.03;;
46222;SDS011;31943;51.410;7.564;2023-07-08T04:42:02;3.67;;;2.63;;
46222;SDS011;31943;51.410;7.564;2023-07-08T04:44:28;2.97;;;2.20;;
46222;SDS011;31943;51.410;7.564;2023-07-08T04:46:54;2.90;;;2.60;;
46222;SDS011;31943;51.410;7.564;2023-07-08T04:49:24;3.38;;;2.28;;
46222;SDS011;31943;51.410;7.564;2023-07-08T04:51:50;6.10;;;2.72;;
46222;SDS011;31943;51.410;7.564;2023-07-08T04:54:16;3.35;;;2.60;;
46222;SDS011;31943;51.410;7.564;2023-07-08T04:56:43;5.90;;;2.80;;
46222;SDS011;31943;51.410;7.564;2023-07-08T04:59:12;5.00;;;2.70;;
46222;SDS011;31943;51.410;7.564;2023-07-08T05:01:40;3.88;;;2.63;;
46222;SDS011;31943;51.410;7.564;2023-07-08T05:04:07;5.00;;;2.92;;
46222;SDS011;31943;51.410;7.564;2023-07-08T05:06:36;5.75;;;2.92;;
46222;SDS011;31943;51.410;7.564;2023-07-08T05:09:02;4.03;;;3.00;;
46222;SDS011;31943;51.410;7.564;2023-07-08T05:11:29;4.82;;;2.70;;
46222;SDS011;31943;51.410;7.564;2023-07-08T05:13:56;4.70;;;2.55;;
46222;SDS011;31943;51.410;7.564;2023-07-08T05:16:24;4.80;;;3.00;;
46222;SDS011;31943;51.410;7.564;2023-07-08T05:18:51;9.18;;;2.78;;
46222;SDS011;31943;51.410;7.564;2023-07-08T05:21:17;4.03;;;2.53;;
46222;SDS011;31943;51.410;7.564;2023-07-08T05:23:47;4.43;;;2.90;;
46222;SDS011;31943;51.410;7.564;2023-07-08T05:26:12;5.25;;;2.58;;
46222;SDS011;31943;51.410;7.564;2023-07-08T05:28:39;3.72;;;2.35;;
46222;SDS011;31943;51.410;7.564;2023-07-08T05:31:04;4.60;;;2.75;;
46222;SDS011;31943;51.410;7.564;2023-07-08T05:33:31;4.70;;;2.88;;
46222;SDS011;31943;51.410;7.564;2023-07-08T05:35:57;3.85;;;2.90;;
46222;SDS011;31943;51.410;7.564;2023-07-08T05:38:23;5.57;;;3.58;;
46222;SDS011;31943;51.410;7.564;2023-07-08T05:40:53;3.95;;;3.08;;
46222;SDS011;31943;51.410;7.564;2023-07-08T05:43:20;4.38;;;3.15;;
46222;SDS011;31943;51.410;7.564;2023-07-08T05:45:46;5.00;;;3.10;;
46222;SDS011;31943;51.410;7.564;2023-07-08T05:48:12;4.47;;;3.47;;
46222;SDS011;31943;51.410;7.564;2023-07-08T05:50:38;3.63;;;2.35;;
46222;SDS011;31943;51.410;7.564;2023-07-08T05:53:05;4.60;;;2.80;;
46222;SDS011;31943;51.410;7.564;2023-07-08T05:55:32;3.47;;;2.45;;
46222;SDS011;31943;51.410;7.564;2023-07-08T05:57:59;4.63;;;3.30;;
46222;SDS011;31943;51.410;7.564;2023-07-08T06:00:25;3.50;;;3.00;;
46222;SDS011;31943;51.410;7.564;2023-07-08T06:02:51;5.20;;;3.00;;
46222;SDS011;31943;51.410;7.564;2023-07-08T06:05:16;3.88;;;2.90;;
46222;SDS011;31943;51.410;7.564;2023-07-08T06:07:42;5.95;;;3.00;;
46222;SDS011;31943;51.410;7.564;2023-07-08T06:10:08;6.03;;;2.97;;
46222;SDS011;31943;51.410;7.564;2023-07-08T06:12:34;4.82;;;3.03;;
46222;SDS011;31943;51.410;7.564;2023-07-08T06:15:01;6.15;;;3.25;;
46222;SDS011;31943;51.410;7.564;2023-07-08T06:17:27;3.03;;;2.65;;
46222;SDS011;31943;51.410;7.564;2023-07-08T06:19:53;4.28;;;3.10;;
46222;SDS011;31943;51.410;7.564;2023-07-08T06:22:18;4.53;;;2.53;;
46222;SDS011;31943;51.410;7.564;2023-07-08T06:24:44;4.22;;;2.90;;
46222;SDS011;31943;51.410;7.564;2023-07-08T06:27:09;5.15;;;2.92;;
46222;SDS011;31943;51.410;7.564;2023-07-08T06:29:35;4.25;;;3.00;;
46222;SDS011;31943;51.410;7.564;2023-07-08T06:32:02;5.65;;;2.97;;
46222;SDS011;31943;51.410;7.564;2023-07-08T06:34:28;4.35;;;3.03;;
46222;SDS011;31943;51.410;7.564;2023-07-08T06:36:54;5.30;;;3.10;;
46222;SDS011;31943;51.410;7.564;2023-07-08T06:39:19;6.38;;;3.50;;
46222;SDS011;31943;51.410;7.564;2023-07-08T06:41:45;4.88;;;2.97;;
46222;SDS011;31943;51.410;7.564;2023-07-08T06:44:11;4.18;;;3.05;;
46222;SDS011;31943;51.410;7.564;2023-07-08T06:46:36;5.53;;;2.78;;
46222;SDS011;31943;51.410;7.564;2023-07-08T06:49:04;6.60;;;3.00;;
46222;SDS011;31943;51.410;7.564;2023-07-08T06:51:29;3.78;;;2.70;;
46222;SDS011;31943;51.410;7.564;2023-07-08T06:53:55;4.03;;;2.60;;
46222;SDS011;31943;51.410;7.564;2023-07-08T06:56:21;3.30;;;2.72;;
46222;SDS011;31943;51.410;7.564;2023-07-08T06:58:46;4.38;;;2.80;;
46222;SDS011;31943;51.410;7.564;2023-07-08T07:01:12;6.80;;;3.10;;
46222;SDS011;31943;51.410;7.564;2023-07-08T07:03:38;3.15;;;2.72;;
46222;SDS011;31943;51.410;7.564;2023-07-08T07:06:05;2.95;;;2.42;;
46222;SDS011;31943;51.410;7.564;2023-07-08T07:08:31;3.72;;;2.90;;
46222;SDS011;31943;51.410;7.564;2023-07-08T07:10:57;5.07;;;3.22;;
46222;SDS011;31943;51.410;7.564;2023-07-08T07:13:24;5.05;;;3.25;;
46222;SDS011;31943;51.410;7.564;2023-07-08T07:15:50;4.72;;;2.97;;
46222;SDS011;31943;51.410;7.564;2023-07-08T07:18:16;3.72;;;3.33;;
46222;SDS011;31943;51.410;7.564;2023-07-08T07:20:46;9.35;;;3.15;;
46222;SDS011;31943;51.410;7.564;2023-07-08T07:23:15;5.80;;;3.17;;
46222;SDS011;31943;51.410;7.564;2023-07-08T07:25:44;5.28;;;3.40;;
46222;SDS011;31943;51.410;7.564;2023-07-08T07:28:10;4.22;;;3.22;;
46222;SDS011;31943;51.410;7.564;2023-07-08T07:30:36;5.22;;;3.55;;
46222;SDS011;31943;51.410;7.564;2023-07-08T07:33:02;7.57;;;4.00;;
46222;SDS011;31943;51.410;7.564;2023-07-08T07:35:28;6.95;;;3.97;;
46222;SDS011;31943;51.410;7.564;2023-07-08T07:37:54;6.47;;;4.45;;
46222;SDS011;31943;51.410;7.564;2023-07-08T07:40:22;6.40;;;4.30;;
46222;SDS011;31943;51.410;7.564;2023-07-08T07:42:48;7.03;;;4.25;;
46222;SDS011;31943;51.410;7.564;2023-07-08T07:45:14;7.13;;;4.38;;
46222;SDS011;31943;51.410;7.564;2023-07-08T07:47:41;5.90;;;4.30;;
46222;SDS011;31943;51.410;7.564;2023-07-08T07:50:07;4.97;;;4.00;;
46222;SDS011;31943;51.410;7.564;2023-07-08T07:52:34;5.65;;;4.03;;
46222;SDS011;31943;51.410;7.564;2023-07-08T07:55:02;5.70;;;4.05;;
46222;SDS011;31943;51.410;7.564;2023-07-08T07:57:30;6.45;;;4.22;;
46222;SDS011;31943;51.410;7.564;2023-07-08T07:59:55;4.95;;;4.25;;
46222;SDS011;31943;51.410;7.564;2023-07-08T08:02:21;5.75;;;4.13;;
46222;SDS011;31943;51.410;7.564;2023-07-08T08:04:49;6.75;;;4.45;;
46222;SDS011;31943;51.410;7.564;2023-07-08T08:07:14;5.75;;;4.50;;
46222;SDS011;31943;51.410;7.564;2023-07-08T08:09:40;8.25;;;4.15;;
46222;SDS011;31943;51.410;7.564;2023-07-08T08:12:06;8.70;;;4.82;;
46222;SDS011;31943;51.410;7.564;2023-07-08T08:14:35;7.30;;;4.43;;
46222;SDS011;31943;51.410;7.564;2023-07-08T08:17:00;5.43;;;4.40;;
46222;SDS011;31943;51.410;7.564;2023-07-08T08:19:26;6.22;;;4.28;;
46222;SDS011;31943;51.410;7.564;2023-07-08T08:21:51;6.95;;;3.97;;
46222;SDS011;31943;51.410;7.564;2023-07-08T08:24:17;6.80;;;4.35;;
46222;SDS011;31943;51.410;7.564;2023-07-08T08:26:43;8.93;;;4.80;;
46222;SDS011;31943;51.410;7.564;2023-07-08T08:29:09;7.57;;;4.97;;
46222;SDS011;31943;51.410;7.564;2023-07-08T08:31:36;5.70;;;4.53;;
46222;SDS011;31943;51.410;7.564;2023-07-08T08:34:02;5.70;;;4.20;;
46222;SDS011;31943;51.410;7.564;2023-07-08T08:36:27;5.97;;;4.90;;
46222;SDS011;31943;51.410;7.564;2023-07-08T08:38:53;5.07;;;4.55;;
46222;SDS011;31943;51.410;7.564;2023-07-08T08:41:19;6.82;;;4.65;;
46222;SDS011;31943;51.410;7.564;2023-07-08T08:43:50;5.03;;;4.40;;
46222;SDS011;31943;51.410;7.564;2023-07-08T08:46:20;7.38;;;4.60;;
46222;SDS011;31943;51.410;7.564;2023-07-08T08:48:56;5.93;;;4.63;;
46222;SDS011;31943;51.410;7.564;2023-07-08T08:51:27;5.80;;;4.53;;
46222;SDS011;31943;51.410;7.564;2023-07-08T08:53:56;6.72;;;4.80;;
46222;SDS011;31943;51.410;7.564;2023-07-08T08:56:24;7.20;;;4.90;;
46222;SDS011;31943;51.410;7.564;2023-07-08T08:58:55;5.32;;;4.57;;
46222;SDS011;31943;51.410;7.564;2023-07-08T09:01:27;7.00;;;5.38;;
46222;SDS011;31943;51.410;7.564;2023-07-08T09:03:56;6.10;;;5.03;;
46222;SDS011;31943;51.410;7.564;2023-07-08T09:06:26;5.82;;;4.35;;
46222;SDS011;31943;51.410;7.564;2023-07-08T09:08:54;4.72;;;4.30;;
46222;SDS011;31943;51.410;7.564;2023-07-08T09:11:25;7.43;;;4.28;;
46222;SDS011;31943;51.410;7.564;2023-07-08T09:14:01;6.70;;;4.63;;
46222;SDS011;31943;51.410;7.564;2023-07-08T09:16:29;7.10;;;4.43;;
46222;SDS011;31943;51.410;7.564;2023-07-08T09:19:08;8.00;;;4.90;;
46222;SDS011;31943;51.410;7.564;2023-07-08T09:21:37;6.43;;;4.82;;
46222;SDS011;31943;51.410;7.564;2023-07-08T09:24:10;5.65;;;4.07;;
46222;SDS011;31943;51.410;7.564;2023-07-08T09:26:42;5.13;;;4.60;;
46222;SDS011;31943;51.410;7.564;2023-07-08T09:29:12;6.30;;;4.90;;
46222;SDS011;31943;51.410;7.564;2023-07-08T09:31:39;6.55;;;5.35;;
46222;SDS011;31943;51.410;7.564;2023-07-08T09:34:08;5.55;;;4.57;;
46222;SDS011;31943;51.410;7.564;2023-07-08T09:39:04;5.35;;;4.50;;
46222;SDS011;31943;51.410;7.564;2023-07-08T09:41:35;5.13;;;4.60;;
46222;SDS011;31943;51.410;7.564;2023-07-08T09:44:05;5.50;;;4.65;;
46222;SDS011;31943;51.410;7.564;2023-07-08T09:46:39;8.25;;;4.47;;
46222;SDS011;31943;51.410;7.564;2023-07-08T09:49:14;9.00;;;5.28;;
46222;SDS011;31943;51.410;7.564;2023-07-08T09:52:06;5.72;;;5.07;;
46222;SDS011;31943;51.410;7.564;2023-07-08T09:54:32;6.45;;;4.90;;
46222;SDS011;31943;51.410;7.564;2023-07-08T09:56:59;8.93;;;4.85;;
46222;SDS011;31943;51.410;7.564;2023-07-08T09:59:29;6.07;;;4.65;;
46222;SDS011;31943;51.410;7.564;2023-07-08T10:01:59;4.97;;;4.47;;
46222;SDS011;31943;51.410;7.564;2023-07-08T10:04:28;6.53;;;4.27;;
46222;SDS011;31943;51.410;7.564;2023-07-08T10:06:54;6.25;;;4.00;;
46222;SDS011;31943;51.410;7.564;2023-07-08T10:09:20;4.10;;;3.70;;
46222;SDS011;31943;51.410;7.564;2023-07-08T10:11:51;5.55;;;3.78;;
46222;SDS011;31943;51.410;7.564;2023-07-08T10:14:23;4.82;;;3.05;;
46222;SDS011;31943;51.410;7.564;2023-07-08T10:16:51;3.60;;;3.28;;
46222;SDS011;31943;51.410;7.564;2023-07-08T10:19:18;6.07;;;3.33;;
46222;SDS011;31943;51.410;7.564;2023-07-08T10:21:48;3.30;;;3.00;;
46222;SDS011;31943;51.410;7.564;2023-07-08T10:24:22;5.28;;;3.08;;
46222;SDS011;31943;51.410;7.564;2023-07-08T10:26:56;4.45;;;3.53;;
46222;SDS011;31943;51.410;7.564;2023-07-08T10:29:28;6.57;;;3.63;;
46222;SDS011;31943;51.410;7.564;2023-07-08T10:32:03;5.78;;;3.60;;
46222;SDS011;31943;51.410;7.564;2023-07-08T10:34:39;6.40;;;3.50;;
46222;SDS011;31943;51.410;7.564;2023-07-08T10:37:17;4.90;;;3.17;;
46222;SDS011;31943;51.410;7.564;2023-07-08T10:39:55;4.32;;;3.13;;
46222;SDS011;31943;51.410;7.564;2023-07-08T10:42:33;3.63;;;3.25;;
46222;SDS011;31943;51.410;7.564;2023-07-08T10:45:13;4.85;;;3.30;;
46222;SDS011;31943;51.410;7.564;2023-07-08T10:47:46;4.85;;;3.58;;
46222;SDS011;31943;51.410;7.564;2023-07-08T10:50:27;6.35;;;3.42;;
46222;SDS011;31943;51.410;7.564;2023-07-08T10:53:06;4.05;;;3.30;;
46222;SDS011;31943;51.410;7.564;2023-07-08T10:55:45;4.43;;;3.30;;
46222;SDS011;31943;51.410;7.564;2023-07-08T10:58:27;6.18;;;3.47;;
46222;SDS011;31943;51.410;7.564;2023-07-08T11:01:10;3.50;;;2.88;;
46222;SDS011;31943;51.410;7.564;2023-07-08T11:06:50;5.63;;;3.75;;
46222;SDS011;31943;51.410;7.564;2023-07-08T11:11:51;4.97;;;3.55;;
46222;SDS011;31943;51.410;7.564;2023-07-08T11:14:24;3.63;;;3.17;;
46222;SDS011;31943;51.410;7.564;2023-07-08T11:16:56;3.83;;;3.40;;
46222;SDS011;31943;51.410;7.564;2023-07-08T11:19:30;3.90;;;3.00;;
46222;SDS011;31943;51.410;7.564;2023-07-08T11:22:00;3.40;;;3.10;;
46222;SDS011;31943;51.410;7.564;2023-07-08T11:24:37;5.53;;;3.50;;
46222;SDS011;31943;51.410;7.564;2023-07-08T11:27:08;4.82;;;3.67;;
46222;SDS011;31943;51.410;7.564;2023-07-08T11:29:44;4.47;;;3.30;;
46222;SDS011;31943;51.410;7.564;2023-07-08T11:32:16;4.13;;;3.22;;
46222;SDS011;31943;51.410;7.564;2023-07-08T11:34:46;5.13;;;3.72;;
46222;SDS011;31943;51.410;7.564;2023-07-08T11:37:14;4.55;;;3.33;;
46222;SDS011;31943;51.410;7.564;2023-07-08T11:39:43;4.85;;;3.50;;
46222;SDS011;31943;51.410;7.564;2023-07-08T11:42:17;4.57;;;3.63;;
46222;SDS011;31943;51.410;7.564;2023-07-08T11:44:46;4.50;;;3.80;;
46222;SDS011;31943;51.410;7.564;2023-07-08T11:47:16;4.22;;;3.60;;
46222;SDS011;31943;51.410;7.564;2023-07-08T11:49:44;4.93;;;3.65;;
46222;SDS011;31943;51.410;7.564;2023-07-08T11:52:13;3.97;;;3.50;;
46222;SDS011;31943;51.410;7.564;2023-07-08T11:54:44;6.72;;;3.80;;
46222;SDS011;31943;51.410;7.564;2023-07-08T11:57:16;4.28;;;3.38;;
46222;SDS011;31943;51.410;7.564;2023-07-08T11:59:43;4.30;;;3.20;;
46222;SDS011;31943;51.410;7.564;2023-07-08T12:02:11;4.43;;;3.47;;
46222;SDS011;31943;51.410;7.564;2023-07-08T12:04:53;4.70;;;3.47;;
46222;SDS011;31943;51.410;7.564;2023-07-08T12:07:30;4.50;;;3.78;;
46222;SDS011;31943;51.410;7.564;2023-07-08T12:10:03;3.28;;;2.90;;
46222;SDS011;31943;51.410;7.564;2023-07-08T12:12:31;3.67;;;3.28;;
46222;SDS011;31943;51.410;7.564;2023-07-08T12:15:04;5.93;;;3.77;;
46222;SDS011;31943;51.410;7.564;2023-07-08T12:17:36;4.97;;;3.67;;
46222;SDS011;31943;51.410;7.564;2023-07-08T12:20:06;5.78;;;3.47;;
46222;SDS011;31943;51.410;7.564;2023-07-08T12:22:42;6.35;;;4.28;;
46222;SDS011;31943;51.410;7.564;2023-07-08T12:25:11;5.13;;;3.60;;
46222;SDS011;31943;51.410;7.564;2023-07-08T12:27:39;4.20;;;3.38;;
46222;SDS011;31943;51.410;7.564;2023-07-08T12:30:05;3.80;;;3.15;;
46222;SDS011;31943;51.410;7.564;2023-07-08T12:32:33;4.65;;;3.38;;
46222;SDS011;31943;51.410;7.564;2023-07-08T12:35:00;4.85;;;3.78;;
46222;SDS011;31943;51.410;7.564;2023-07-08T12:37:26;6.28;;;3.85;;
46222;SDS011;31943;51.410;7.564;2023-07-08T12:39:55;4.65;;;3.40;;
46222;SDS011;31943;51.410;7.564;2023-07-08T12:42:22;4.07;;;3.37;;
46222;SDS011;31943;51.410;7.564;2023-07-08T12:44:48;5.60;;;3.72;;
46222;SDS011;31943;51.410;7.564;2023-07-08T12:47:14;4.32;;;3.28;;
46222;SDS011;31943;51.410;7.564;2023-07-08T12:49:46;4.82;;;3.33;;
46222;SDS011;31943;51.410;7.564;2023-07-08T12:52:21;5.45;;;3.33;;
46222;SDS011;31943;51.410;7.564;2023-07-08T12:54:48;7.18;;;3.58;;
46222;SDS011;31943;51.410;7.564;2023-07-08T12:57:13;6.50;;;3.90;;
46222;SDS011;31943;51.410;7.564;2023-07-08T12:59:42;4.15;;;3.33;;
46222;SDS011;31943;51.410;7.564;2023-07-08T13:02:10;4.57;;;3.50;;
46222;SDS011;31943;51.410;7.564;2023-07-08T13:04:41;4.43;;;3.25;;
46222;SDS011;31943;51.410;7.564;2023-07-08T13:07:12;4.78;;;3.35;;
46222;SDS011;31943;51.410;7.564;2023-07-08T13:09:49;4.78;;;3.33;;
46222;SDS011;31943;51.410;7.564;2023-07-08T13:12:15;4.70;;;3.47;;
46222;SDS011;31943;51.410;7.564;2023-07-08T13:14:46;4.25;;;3.35;;
46222;SDS011;31943;51.410;7.564;2023-07-08T13:17:13;5.85;;;3.33;;
46222;SDS011;31943;51.410;7.564;2023-07-08T13:19:42;5.95;;;3.47;;
46222;SDS011;31943;51.410;7.564;2023-07-08T13:22:11;5.53;;;3.55;;
46222;SDS011;31943;51.410;7.564;2023-07-08T13:24:40;5.57;;;3.60;;
46222;SDS011;31943;51.410;7.564;2023-07-08T13:27:08;6.75;;;3.40;;
46222;SDS011;31943;51.410;7.564;2023-07-08T13:29:41;6.55;;;3.85;;
46222;SDS011;31943;51.410;7.564;2023-07-08T13:32:10;4.13;;;3.45;;
46222;SDS011;31943;51.410;7.564;2023-07-08T13:34:36;4.28;;;3.50;;
46222;SDS011;31943;51.410;7.564;2023-07-08T13:37:02;3.50;;;3.20;;
46222;SDS011;31943;51.410;7.564;2023-07-08T13:39:30;6.97;;;3.50;;
46222;SDS011;31943;51.410;7.564;2023-07-08T13:44:25;3.22;;;2.80;;
46222;SDS011;31943;51.410;7.564;2023-07-08T13:46:53;11.55;;;4.00;;
46222;SDS011;31943;51.410;7.564;2023-07-08T13:49:25;4.03;;;3.28;;
46222;SDS011;31943;51.410;7.564;2023-07-08T13:52:04;5.40;;;3.38;;
46222;SDS011;31943;51.410;7.564;2023-07-08T13:54:33;4.03;;;3.38;;
46222;SDS011;31943;51.410;7.564;2023-07-08T13:57:00;3.90;;;3.45;;
46222;SDS011;31943;51.410;7.564;2023-07-08T13:59:27;3.65;;;3.15;;
46222;SDS011;31943;51.410;7.564;2023-07-08T14:01:54;5.60;;;3.47;;
46222;SDS011;31943;51.410;7.564;2023-07-08T14:04:23;4.43;;;3.50;;
46222;SDS011;31943;51.410;7.564;2023-07-08T14:06:54;3.95;;;3.33;;
46222;SDS011;31943;51.410;7.564;2023-07-08T14:09:21;3.95;;;3.47;;
46222;SDS011;31943;51.410;7.564;2023-07-08T14:11:48;3.63;;;3.25;;
46222;SDS011;31943;51.410;7.564;2023-07-08T14:14:15;5.63;;;3.55;;
46222;SDS011;31943;51.410;7.564;2023-07-08T14:16:42;5.70;;;3.92;;
46222;SDS011;31943;51.410;7.564;2023-07-08T14:19:12;5.93;;;3.88;;
46222;SDS011;31943;51.410;7.564;2023-07-08T14:21:44;4.80;;;3.50;;
46222;SDS011;31943;51.410;7.564;2023-07-08T14:24:10;5.80;;;3.75;;
46222;SDS011;31943;51.410;7.564;2023-07-08T14:26:38;5.03;;;3.88;;
46222;SDS011;31943;51.410;7.564;2023-07-08T14:29:06;6.50;;;3.88;;
46222;SDS011;31943;51.410;7.564;2023-07-08T14:31:32;6.47;;;4.10;;
46222;SDS011;31943;51.410;7.564;2023-07-08T14:34:00;5.63;;;4.05;;
46222;SDS011;31943;51.410;7.564;2023-07-08T14:36:30;4.38;;;3.92;;
46222;SDS011;31943;51.410;7.564;2023-07-08T14:39:00;5.75;;;4.10;;
46222;SDS011;31943;51.410;7.564;2023-07-08T14:41:25;7.13;;;3.85;;
46222;SDS011;31943;51.410;7.564;2023-07-08T14:43:52;4.43;;;3.92;;
46222;SDS011;31943;51.410;7.564;2023-07-08T14:46:19;4.63;;;4.10;;
46222;SDS011;31943;51.410;7.564;2023-07-08T14:48:44;6.93;;;3.65;;
46222;SDS011;31943;51.410;7.564;2023-07-08T14:51:10;6.82;;;4.68;;
46222;SDS011;31943;51.410;7.564;2023-07-08T14:53:36;4.88;;;3.70;;
46222;SDS011;31943;51.410;7.564;2023-07-08T14:56:05;6.70;;;4.07;;
46222;SDS011;31943;51.410;7.564;2023-07-08T14:58:37;5.25;;;4.07;;
46222;SDS011;31943;51.410;7.564;2023-07-08T15:01:08;7.13;;;4.53;;
46222;SDS011;31943;51.410;7.564;2023-07-08T15:03:40;4.88;;;4.10;;
46222;SDS011;31943;51.410;7.564;2023-07-08T15:06:08;10.63;;;4.55;;
46222;SDS011;31943;51.410;7.564;2023-07-08T15:08:34;6.32;;;4.18;;
46222;SDS011;31943;51.410;7.564;2023-07-08T15:11:00;7.60;;;4.20;;